sensor_id;sensor_type;location;lat;lon;timestamp;pressure;altitude;pressure_sealevel;temperature;humidity
64078;BME280;51039;49.696;10.808;2023-06-22T00:01:02;98538.13;;;18.79;100.00
64078;BME280;51039;49.696;10.808;2023-06-22T00:03:27;98536.72;;;18.76;100.00
64078;BME280;51039;49.696;10.808;2023-06-22T00:05:52;98546.03;;;18.69;100.00
64078;BME280;51039;49.696;10.808;2023-06-22T00:08:19;98550.03;;;18.66;100.00
64078;BME280;51039;49.696;10.808;2023-06-22T00:10:45;98547.03;;;18.62;100.00
64078;BME280;51039;49.696;10.808;2023-06-22T00:13:11;98560.09;;;18.54;100.00
64078;BME280;51039;49.696;10.808;2023-06-22T00:15:38;98555.22;;;18.51;100.00
64078;BME280;51039;49.696;10.808;2023-06-22T00:18:08;98558.97;;;18.50;100.00
64078;BME280;51039;49.696;10.808;2023-06-22T00:20:34;98547.81;;;18.58;100.00
64078;BME280;51039;49.696;10.808;2023-06-22T00:23:02;98552.09;;;18.59;100.00
64078;BME280;51039;49.696;10.808;2023-06-22T00:25:36;98551.84;;;18.60;100.00
64078;BME280;51039;49.696;10.808;2023-06-22T00:28:04;98557.22;;;18.60;100.00
64078;BME280;51039;49.696;10.808;2023-06-22T00:30:31;98569.44;;;18.51;100.00
64078;BME280;51039;49.696;10.808;2023-06-22T00:32:57;98576.38;;;18.47;100.00
64078;BME280;51039;49.696;10.808;2023-06-22T00:35:23;98585.47;;;18.46;100.00
64078;BME280;51039;49.696;10.808;2023-06-22T00:37:53;98585.16;;;18.42;100.00
64078;BME280;51039;49.696;10.808;2023-06-22T00:40:25;98581.53;;;18.32;100.00
64078;BME280;51039;49.696;10.808;2023-06-22T00:42:50;98585.75;;;18.28;100.00
64078;BME280;51039;49.696;10.808;2023-06-22T00:45:16;98591.69;;;18.30;100.00
64078;BME280;51039;49.696;10.808;2023-06-22T00:47:41;98586.50;;;18.23;100.00
64078;BME280;51039;49.696;10.808;2023-06-22T00:50:08;98590.19;;;18.17;100.00
64078;BME280;51039;49.696;10.808;2023-06-22T00:52:34;98593.03;;;18.10;100.00
64078;BME280;51039;49.696;10.808;2023-06-22T00:55:00;98593.22;;;18.03;100.00
64078;BME280;51039;49.696;10.808;2023-06-22T00:57:27;98589.13;;;18.01;100.00
64078;BME280;51039;49.696;10.808;2023-06-22T00:59:53;98580.75;;;17.97;100.00
64078;BME280;51039;49.696;10.808;2023-06-22T01:02:19;98548.03;;;17.95;100.00
64078;BME280;51039;49.696;10.808;2023-06-22T01:04:44;98531.47;;;17.98;100.00
64078;BME280;51039;49.696;10.808;2023-06-22T01:09:46;98479.06;;;18.08;100.00
64078;BME280;51039;49.696;10.808;2023-06-22T01:12:21;98477.00;;;18.15;100.00
64078;BME280;51039;49.696;10.808;2023-06-22T01:14:51;98476.03;;;18.21;100.00
64078;BME280;51039;49.696;10.808;2023-06-22T01:17:23;98464.78;;;18.24;100.00
64078;BME280;51039;49.696;10.808;2023-06-22T01:19:50;98466.91;;;18.22;100.00
64078;BME280;51039;49.696;10.808;2023-06-22T01:22:25;98490.47;;;18.20;100.00
64078;BME280;51039;49.696;10.808;2023-06-22T01:28:33;98481.94;;;18.23;100.00
64078;BME280;51039;49.696;10.808;2023-06-22T01:30:39;98478.44;;;18.22;100.00
64078;BME280;51039;49.696;10.808;2023-06-22T01:33:07;98483.00;;;18.22;100.00
64078;BME280;51039;49.696;10.808;2023-06-22T01:35:37;98466.97;;;18.27;100.00
64078;BME280;51039;49.696;10.808;2023-06-22T01:38:04;98467.53;;;18.29;100.00
64078;BME280;51039;49.696;10.808;2023-06-22T01:40:30;98457.31;;;18.26;100.00
64078;BME280;51039;49.696;10.808;2023-06-22T01:42:58;98461.53;;;18.22;100.00
64078;BME280;51039;49.696;10.808;2023-06-22T01:45:26;98469.84;;;18.20;100.00
64078;BME280;51039;49.696;10.808;2023-06-22T01:47:52;98486.75;;;18.21;100.00
64078;BME280;51039;49.696;10.808;2023-06-22T01:50:19;98488.03;;;18.18;100.00
64078;BME280;51039;49.696;10.808;2023-06-22T01:52:45;98496.34;;;18.17;100.00
64078;BME280;51039;49.696;10.808;2023-06-22T01:55:10;98494.41;;;18.12;100.00
64078;BME280;51039;49.696;10.808;2023-06-22T01:57:35;98497.41;;;18.16;100.00
64078;BME280;51039;49.696;10.808;2023-06-22T02:00:03;98505.63;;;18.09;100.00
64078;BME280;51039;49.696;10.808;2023-06-22T02:02:32;98510.13;;;18.03;100.00
64078;BME280;51039;49.696;10.808;2023-06-22T02:05:07;98515.63;;;17.97;100.00
64078;BME280;51039;49.696;10.808;2023-06-22T02:07:45;98522.31;;;17.94;100.00
64078;BME280;51039;49.696;10.808;2023-06-22T02:10:14;98525.00;;;17.94;100.00
64078;BME280;51039;49.696;10.808;2023-06-22T02:12:44;98525.00;;;17.94;100.00
64078;BME280;51039;49.696;10.808;2023-06-22T02:15:11;98499.56;;;17.97;100.00
64078;BME280;51039;49.696;10.808;2023-06-22T02:17:37;98504.69;;;17.98;100.00
64078;BME280;51039;49.696;10.808;2023-06-22T02:20:03;98512.16;;;17.96;100.00
64078;BME280;51039;49.696;10.808;2023-06-22T02:22:31;98521.50;;;17.94;100.00
64078;BME280;51039;49.696;10.808;2023-06-22T02:25:14;98521.75;;;17.92;100.00
64078;BME280;51039;49.696;10.808;2023-06-22T02:27:40;98534.06;;;17.93;100.00
64078;BME280;51039;49.696;10.808;2023-06-22T02:30:07;98542.13;;;17.93;100.00
64078;BME280;51039;49.696;10.808;2023-06-22T02:32:35;98589.72;;;17.86;100.00
64078;BME280;51039;49.696;10.808;2023-06-22T02:35:01;98651.31;;;17.69;100.00
64078;BME280;51039;49.696;10.808;2023-06-22T02:37:31;98716.59;;;17.51;100.00
64078;BME280;51039;49.696;10.808;2023-06-22T02:39:57;98784.44;;;17.40;100.00
64078;BME280;51039;49.696;10.808;2023-06-22T02:42:23;98771.69;;;17.47;100.00
64078;BME280;51039;49.696;10.808;2023-06-22T02:44:48;98711.34;;;17.56;100.00
64078;BME280;51039;49.696;10.808;2023-06-22T02:47:13;98689.28;;;17.66;100.00
64078;BME280;51039;49.696;10.808;2023-06-22T02:49:39;98708.31;;;17.81;100.00
64078;BME280;51039;49.696;10.808;2023-06-22T02:52:04;98698.41;;;17.94;100.00
64078;BME280;51039;49.696;10.808;2023-06-22T02:54:29;98685.94;;;18.04;100.00
64078;BME280;51039;49.696;10.808;2023-06-22T02:56:55;98673.69;;;18.09;100.00
64078;BME280;51039;49.696;10.808;2023-06-22T02:59:20;98668.41;;;18.14;100.00
64078;BME280;51039;49.696;10.808;2023-06-22T03:01:49;98653.13;;;18.14;100.00
64078;BME280;51039;49.696;10.808;2023-06-22T03:04:15;98660.47;;;18.19;100.00
64078;BME280;51039;49.696;10.808;2023-06-22T03:06:40;98658.50;;;18.14;100.00
64078;BME280;51039;49.696;10.808;2023-06-22T03:09:06;98651.03;;;18.16;100.00
64078;BME280;51039;49.696;10.808;2023-06-22T03:11:32;98644.03;;;18.15;100.00
64078;BME280;51039;49.696;10.808;2023-06-22T03:13:58;98629.91;;;18.03;100.00
64078;BME280;51039;49.696;10.808;2023-06-22T03:16:23;98624.38;;;18.10;100.00
64078;BME280;51039;49.696;10.808;2023-06-22T03:18:49;98609.56;;;18.24;100.00
64078;BME280;51039;49.696;10.808;2023-06-22T03:21:14;98603.53;;;18.34;100.00
64078;BME280;51039;49.696;10.808;2023-06-22T03:23:40;98589.41;;;18.38;100.00
64078;BME280;51039;49.696;10.808;2023-06-22T03:26:06;98569.25;;;18.36;100.00
64078;BME280;51039;49.696;10.808;2023-06-22T03:28:31;98572.19;;;18.34;100.00
64078;BME280;51039;49.696;10.808;2023-06-22T03:30:57;98570.00;;;18.31;100.00
64078;BME280;51039;49.696;10.808;2023-06-22T03:33:23;98568.94;;;18.32;100.00
64078;BME280;51039;49.696;10.808;2023-06-22T03:35:48;98558.94;;;18.28;100.00
64078;BME280;51039;49.696;10.808;2023-06-22T03:38:14;98547.34;;;18.22;100.00
64078;BME280;51039;49.696;10.808;2023-06-22T03:40:40;98537.19;;;18.24;100.00
64078;BME280;51039;49.696;10.808;2023-06-22T03:43:05;98536.69;;;18.27;100.00
64078;BME280;51039;49.696;10.808;2023-06-22T03:45:30;98530.09;;;18.35;100.00
64078;BME280;51039;49.696;10.808;2023-06-22T03:47:56;98518.34;;;18.41;100.00
64078;BME280;51039;49.696;10.808;2023-06-22T03:50:21;98516.06;;;18.50;100.00
64078;BME280;51039;49.696;10.808;2023-06-22T03:52:47;98513.41;;;18.55;100.00
64078;BME280;51039;49.696;10.808;2023-06-22T03:55:12;98512.72;;;18.64;100.00
64078;BME280;51039;49.696;10.808;2023-06-22T03:57:37;98502.44;;;18.78;100.00
64078;BME280;51039;49.696;10.808;2023-06-22T04:00:03;98503.59;;;18.88;100.00
64078;BME280;51039;49.696;10.808;2023-06-22T04:02:32;98502.69;;;19.04;100.00
64078;BME280;51039;49.696;10.808;2023-06-22T04:04:58;98492.66;;;19.21;100.00
64078;BME280;51039;49.696;10.808;2023-06-22T04:07:23;98480.88;;;19.28;100.00
64078;BME280;51039;49.696;10.808;2023-06-22T04:09:48;98487.47;;;19.47;100.00
64078;BME280;51039;49.696;10.808;2023-06-22T04:12:14;98486.06;;;19.72;100.00
64078;BME280;51039;49.696;10.808;2023-06-22T04:14:39;98491.50;;;20.35;96.32
64078;BME280;51039;49.696;10.808;2023-06-22T04:17:04;98482.50;;;20.82;93.64
64078;BME280;51039;49.696;10.808;2023-06-22T04:19:30;98481.47;;;21.24;90.44
64078;BME280;51039;49.696;10.808;2023-06-22T04:21:55;98486.56;;;21.67;88.34
64078;BME280;51039;49.696;10.808;2023-06-22T04:24:20;98487.81;;;22.15;84.79
64078;BME280;51039;49.696;10.808;2023-06-22T04:26:46;98491.50;;;22.45;83.16
64078;BME280;51039;49.696;10.808;2023-06-22T04:29:12;98482.41;;;22.81;80.86
64078;BME280;51039;49.696;10.808;2023-06-22T04:31:37;98470.66;;;23.06;80.39
64078;BME280;51039;49.696;10.808;2023-06-22T04:34:03;98462.19;;;23.18;79.21
64078;BME280;51039;49.696;10.808;2023-06-22T04:36:34;98454.31;;;22.77;80.63
64078;BME280;51039;49.696;10.808;2023-06-22T04:39:03;98439.69;;;21.73;85.22
64078;BME280;51039;49.696;10.808;2023-06-22T04:41:32;98444.78;;;21.74;85.72
64078;BME280;51039;49.696;10.808;2023-06-22T04:44:07;98452.56;;;21.86;85.30
64078;BME280;51039;49.696;10.808;2023-06-22T04:46:33;98454.38;;;22.71;82.46
64078;BME280;51039;49.696;10.808;2023-06-22T04:49:03;98449.16;;;23.54;76.85
64078;BME280;51039;49.696;10.808;2023-06-22T04:51:31;98448.88;;;24.52;72.49
64078;BME280;51039;49.696;10.808;2023-06-22T04:53:57;98453.03;;;25.34;69.20
64078;BME280;51039;49.696;10.808;2023-06-22T04:56:26;98452.22;;;26.22;65.39
64078;BME280;51039;49.696;10.808;2023-06-22T04:58:53;98459.13;;;26.92;63.48
64078;BME280;51039;49.696;10.808;2023-06-22T05:01:20;98466.34;;;27.73;60.45
64078;BME280;51039;49.696;10.808;2023-06-22T05:03:47;98444.22;;;28.64;56.71
64078;BME280;51039;49.696;10.808;2023-06-22T05:06:13;98448.88;;;28.63;56.60
64078;BME280;51039;49.696;10.808;2023-06-22T05:08:39;98447.25;;;29.23;54.19
64078;BME280;51039;49.696;10.808;2023-06-22T05:11:04;98450.03;;;28.13;57.07
64078;BME280;51039;49.696;10.808;2023-06-22T05:13:30;98449.22;;;28.70;55.21
64078;BME280;51039;49.696;10.808;2023-06-22T05:15:55;98446.94;;;29.33;53.67
64078;BME280;51039;49.696;10.808;2023-06-22T05:18:25;98450.84;;;30.81;50.48
64078;BME280;51039;49.696;10.808;2023-06-22T05:20:52;98455.78;;;31.09;48.77
64078;BME280;51039;49.696;10.808;2023-06-22T05:23:17;98450.38;;;30.58;49.02
64078;BME280;51039;49.696;10.808;2023-06-22T05:25:42;98443.31;;;31.33;48.59
64078;BME280;51039;49.696;10.808;2023-06-22T05:28:07;98444.22;;;30.91;48.45
64078;BME280;51039;49.696;10.808;2023-06-22T05:30:36;98441.19;;;29.73;51.59
64078;BME280;51039;49.696;10.808;2023-06-22T05:33:01;98441.47;;;29.33;52.49
64078;BME280;51039;49.696;10.808;2023-06-22T05:35:27;98444.56;;;30.39;50.34
64078;BME280;51039;49.696;10.808;2023-06-22T05:37:52;98456.97;;;31.20;47.47
64078;BME280;51039;49.696;10.808;2023-06-22T05:40:17;98451.13;;;31.09;47.89
64078;BME280;51039;49.696;10.808;2023-06-22T05:42:42;98450.97;;;31.06;47.64
64078;BME280;51039;49.696;10.808;2023-06-22T05:45:08;98459.78;;;30.48;48.53
64078;BME280;51039;49.696;10.808;2023-06-22T05:47:34;98457.72;;;30.87;47.85
64078;BME280;51039;49.696;10.808;2023-06-22T05:49:59;98459.63;;;32.36;44.78
64078;BME280;51039;49.696;10.808;2023-06-22T05:52:25;98456.63;;;32.66;43.43
64078;BME280;51039;49.696;10.808;2023-06-22T05:54:50;98460.97;;;32.55;43.12
64078;BME280;51039;49.696;10.808;2023-06-22T05:57:15;98452.09;;;34.06;40.69
64078;BME280;51039;49.696;10.808;2023-06-22T05:59:41;98457.78;;;33.81;40.80
64078;BME280;51039;49.696;10.808;2023-06-22T06:02:06;98451.50;;;33.81;41.04
64078;BME280;51039;49.696;10.808;2023-06-22T06:04:32;98457.22;;;34.39;39.66
64078;BME280;51039;49.696;10.808;2023-06-22T06:06:57;98456.63;;;34.85;38.88
64078;BME280;51039;49.696;10.808;2023-06-22T06:09:22;98449.09;;;34.27;39.11
64078;BME280;51039;49.696;10.808;2023-06-22T06:11:48;98459.88;;;34.71;38.87
64078;BME280;51039;49.696;10.808;2023-06-22T06:14:13;98470.09;;;35.72;37.33
64078;BME280;51039;49.696;10.808;2023-06-22T06:16:39;98462.50;;;36.15;36.21
64078;BME280;51039;49.696;10.808;2023-06-22T06:19:04;98460.47;;;35.19;37.77
64078;BME280;51039;49.696;10.808;2023-06-22T06:21:29;98451.50;;;35.23;37.17
64078;BME280;51039;49.696;10.808;2023-06-22T06:23:55;98452.94;;;36.62;35.51
64078;BME280;51039;49.696;10.808;2023-06-22T06:26:21;98449.28;;;36.85;34.88
64078;BME280;51039;49.696;10.808;2023-06-22T06:28:55;98450.84;;;36.25;35.76
64078;BME280;51039;49.696;10.808;2023-06-22T06:31:21;98438.09;;;37.45;34.22
64078;BME280;51039;49.696;10.808;2023-06-22T06:33:46;98449.56;;;36.46;36.09
64078;BME280;51039;49.696;10.808;2023-06-22T06:36:12;98437.06;;;38.09;33.56
64078;BME280;51039;49.696;10.808;2023-06-22T06:38:38;98435.25;;;39.30;31.44
64078;BME280;51039;49.696;10.808;2023-06-22T06:41:03;98428.44;;;38.14;32.51
64078;BME280;51039;49.696;10.808;2023-06-22T06:43:28;98433.25;;;37.76;33.06
64078;BME280;51039;49.696;10.808;2023-06-22T06:45:54;98433.88;;;37.14;34.15
64078;BME280;51039;49.696;10.808;2023-06-22T06:48:19;98429.06;;;37.97;33.10
64078;BME280;51039;49.696;10.808;2023-06-22T06:50:44;98424.53;;;38.19;32.70
64078;BME280;51039;49.696;10.808;2023-06-22T06:53:10;98424.34;;;37.11;33.43
64078;BME280;51039;49.696;10.808;2023-06-22T06:55:35;98420.72;;;36.13;35.06
64078;BME280;51039;49.696;10.808;2023-06-22T06:58:01;98421.16;;;36.15;35.77
64078;BME280;51039;49.696;10.808;2023-06-22T07:00:29;98431.81;;;35.67;36.59
64078;BME280;51039;49.696;10.808;2023-06-22T07:02:54;98429.06;;;36.47;34.85
64078;BME280;51039;49.696;10.808;2023-06-22T07:05:19;98418.06;;;38.04;32.88
64078;BME280;51039;49.696;10.808;2023-06-22T07:07:45;98423.72;;;35.12;36.98
64078;BME280;51039;49.696;10.808;2023-06-22T07:10:10;98411.63;;;35.16;36.89
64078;BME280;51039;49.696;10.808;2023-06-22T07:12:36;98412.25;;;36.55;35.15
64078;BME280;51039;49.696;10.808;2023-06-22T07:15:02;98409.34;;;37.12;34.09
64078;BME280;51039;49.696;10.808;2023-06-22T07:17:36;98414.28;;;35.55;36.09
64078;BME280;51039;49.696;10.808;2023-06-22T07:20:02;98395.28;;;34.65;37.62
64078;BME280;51039;49.696;10.808;2023-06-22T07:22:35;98398.91;;;34.89;37.13
64078;BME280;51039;49.696;10.808;2023-06-22T07:25:00;98398.50;;;37.27;34.38
64078;BME280;51039;49.696;10.808;2023-06-22T07:27:26;98398.97;;;36.99;33.78
64078;BME280;51039;49.696;10.808;2023-06-22T07:29:52;98399.41;;;37.94;32.07
64078;BME280;51039;49.696;10.808;2023-06-22T07:32:17;98393.47;;;37.02;33.46
64078;BME280;51039;49.696;10.808;2023-06-22T07:34:42;98402.03;;;36.03;34.90
64078;BME280;51039;49.696;10.808;2023-06-22T07:37:08;98393.34;;;35.28;36.06
64078;BME280;51039;49.696;10.808;2023-06-22T07:39:34;98398.25;;;36.11;34.95
64078;BME280;51039;49.696;10.808;2023-06-22T07:41:59;98392.56;;;35.08;36.14
64078;BME280;51039;49.696;10.808;2023-06-22T07:44:25;98390.16;;;35.72;34.99
64078;BME280;51039;49.696;10.808;2023-06-22T07:46:50;98384.44;;;36.68;33.55
64078;BME280;51039;49.696;10.808;2023-06-22T07:49:16;98387.75;;;37.63;31.62
64078;BME280;51039;49.696;10.808;2023-06-22T07:51:42;98378.13;;;37.98;31.54
64078;BME280;51039;49.696;10.808;2023-06-22T07:54:08;98387.69;;;37.14;33.33
64078;BME280;51039;49.696;10.808;2023-06-22T07:56:34;98385.25;;;35.15;34.98
64078;BME280;51039;49.696;10.808;2023-06-22T07:58:59;98382.75;;;34.48;36.13
64078;BME280;51039;49.696;10.808;2023-06-22T08:01:26;98389.56;;;34.93;35.69
64078;BME280;51039;49.696;10.808;2023-06-22T08:03:51;98386.28;;;34.29;37.21
64078;BME280;51039;49.696;10.808;2023-06-22T08:06:16;98396.47;;;35.07;35.49
64078;BME280;51039;49.696;10.808;2023-06-22T08:08:42;98394.16;;;36.28;33.33
64078;BME280;51039;49.696;10.808;2023-06-22T08:11:08;98397.44;;;36.67;32.73
64078;BME280;51039;49.696;10.808;2023-06-22T08:13:33;98394.75;;;37.49;31.69
64078;BME280;51039;49.696;10.808;2023-06-22T08:15:59;98397.00;;;38.51;29.73
64078;BME280;51039;49.696;10.808;2023-06-22T08:18:24;98392.72;;;37.95;30.17
64078;BME280;51039;49.696;10.808;2023-06-22T08:20:49;98389.75;;;37.21;31.51
64078;BME280;51039;49.696;10.808;2023-06-22T08:23:15;98390.22;;;36.02;33.00
64078;BME280;51039;49.696;10.808;2023-06-22T08:25:40;98379.53;;;37.70;31.14
64078;BME280;51039;49.696;10.808;2023-06-22T08:28:05;98368.72;;;39.08;29.57
64078;BME280;51039;49.696;10.808;2023-06-22T08:30:32;98380.59;;;39.08;28.38
64078;BME280;51039;49.696;10.808;2023-06-22T08:32:57;98376.25;;;40.01;27.72
64078;BME280;51039;49.696;10.808;2023-06-22T08:35:23;98384.56;;;40.15;27.26
64078;BME280;51039;49.696;10.808;2023-06-22T08:37:48;98378.78;;;40.76;26.42
64078;BME280;51039;49.696;10.808;2023-06-22T08:40:17;98372.06;;;37.78;29.42
64078;BME280;51039;49.696;10.808;2023-06-22T08:42:44;98365.22;;;38.16;29.78
64078;BME280;51039;49.696;10.808;2023-06-22T08:45:10;98362.53;;;38.38;29.05
64078;BME280;51039;49.696;10.808;2023-06-22T08:47:35;98361.38;;;37.28;31.12
64078;BME280;51039;49.696;10.808;2023-06-22T08:50:01;98346.72;;;38.35;29.66
64078;BME280;51039;49.696;10.808;2023-06-22T08:52:29;98349.94;;;38.51;29.84
64078;BME280;51039;49.696;10.808;2023-06-22T08:54:54;98348.16;;;39.20;28.57
64078;BME280;51039;49.696;10.808;2023-06-22T08:57:20;98339.63;;;38.37;29.29
64078;BME280;51039;49.696;10.808;2023-06-22T08:59:46;98334.16;;;36.85;30.84
64078;BME280;51039;49.696;10.808;2023-06-22T09:02:11;98336.09;;;36.51;32.27
64078;BME280;51039;49.696;10.808;2023-06-22T09:04:36;98328.78;;;38.00;30.19
64078;BME280;51039;49.696;10.808;2023-06-22T09:07:02;98338.22;;;38.97;29.32
64078;BME280;51039;49.696;10.808;2023-06-22T09:09:27;98341.13;;;38.13;29.23
64078;BME280;51039;49.696;10.808;2023-06-22T09:11:52;98335.44;;;38.86;29.18
64078;BME280;51039;49.696;10.808;2023-06-22T09:14:18;98328.28;;;38.82;28.42
64078;BME280;51039;49.696;10.808;2023-06-22T09:16:43;98338.47;;;38.49;28.50
64078;BME280;51039;49.696;10.808;2023-06-22T09:19:09;98335.09;;;39.10;29.38
64078;BME280;51039;49.696;10.808;2023-06-22T09:21:34;98327.00;;;38.43;28.69
64078;BME280;51039;49.696;10.808;2023-06-22T09:23:59;98328.53;;;36.74;30.50
64078;BME280;51039;49.696;10.808;2023-06-22T09:26:25;98330.88;;;38.24;29.30
64078;BME280;51039;49.696;10.808;2023-06-22T09:28:50;98309.31;;;38.73;28.48
64078;BME280;51039;49.696;10.808;2023-06-22T09:31:16;98308.97;;;39.32;27.83
64078;BME280;51039;49.696;10.808;2023-06-22T09:33:41;98300.63;;;38.93;28.63
64078;BME280;51039;49.696;10.808;2023-06-22T09:36:07;98297.91;;;37.90;28.95
64078;BME280;51039;49.696;10.808;2023-06-22T09:38:36;98299.72;;;38.38;28.04
64078;BME280;51039;49.696;10.808;2023-06-22T09:41:02;98297.88;;;39.64;27.47
64078;BME280;51039;49.696;10.808;2023-06-22T09:43:27;98299.41;;;39.98;27.40
64078;BME280;51039;49.696;10.808;2023-06-22T09:45:53;98305.34;;;39.96;26.67
64078;BME280;51039;49.696;10.808;2023-06-22T09:48:18;98303.78;;;39.81;27.24
64078;BME280;51039;49.696;10.808;2023-06-22T09:50:44;98301.81;;;38.81;28.12
64078;BME280;51039;49.696;10.808;2023-06-22T09:53:09;98310.13;;;38.81;29.54
64078;BME280;51039;49.696;10.808;2023-06-22T09:55:34;98314.94;;;38.00;28.91
64078;BME280;51039;49.696;10.808;2023-06-22T09:57:59;98308.47;;;37.74;29.53
64078;BME280;51039;49.696;10.808;2023-06-22T10:00:25;98302.81;;;38.19;29.66
64078;BME280;51039;49.696;10.808;2023-06-22T10:02:51;98297.22;;;38.08;29.56
64078;BME280;51039;49.696;10.808;2023-06-22T10:05:17;98300.53;;;37.65;29.76
64078;BME280;51039;49.696;10.808;2023-06-22T10:07:42;98302.63;;;36.86;30.96
64078;BME280;51039;49.696;10.808;2023-06-22T10:10:09;98299.13;;;37.34;29.72
64078;BME280;51039;49.696;10.808;2023-06-22T10:12:35;98295.81;;;37.18;30.09
64078;BME280;51039;49.696;10.808;2023-06-22T10:15:00;98297.53;;;37.37;30.73
64078;BME280;51039;49.696;10.808;2023-06-22T10:17:25;98292.34;;;37.87;29.77
64078;BME280;51039;49.696;10.808;2023-06-22T10:19:51;98290.41;;;37.95;29.59
64078;BME280;51039;49.696;10.808;2023-06-22T10:22:16;98286.38;;;38.65;29.06
64078;BME280;51039;49.696;10.808;2023-06-22T10:24:41;98294.19;;;38.42;29.22
64078;BME280;51039;49.696;10.808;2023-06-22T10:27:11;98300.00;;;37.49;30.31
64078;BME280;51039;49.696;10.808;2023-06-22T10:29:36;98298.66;;;37.80;30.04
64078;BME280;51039;49.696;10.808;2023-06-22T10:32:02;98288.56;;;38.20;28.78
64078;BME280;51039;49.696;10.808;2023-06-22T10:34:28;98288.84;;;38.01;29.20
64078;BME280;51039;49.696;10.808;2023-06-22T10:36:53;98290.63;;;37.64;29.57
64078;BME280;51039;49.696;10.808;2023-06-22T10:39:18;98281.03;;;38.10;29.87
64078;BME280;51039;49.696;10.808;2023-06-22T10:41:44;98282.13;;;37.95;31.84
64078;BME280;51039;49.696;10.808;2023-06-22T10:44:09;98280.94;;;37.33;30.59
64078;BME280;51039;49.696;10.808;2023-06-22T10:46:35;98277.72;;;37.83;30.04
64078;BME280;51039;49.696;10.808;2023-06-22T10:49:01;98269.66;;;38.37;28.93
64078;BME280;51039;49.696;10.808;2023-06-22T10:51:26;98272.41;;;38.29;29.75
64078;BME280;51039;49.696;10.808;2023-06-22T10:53:53;98274.63;;;37.99;29.15
64078;BME280;51039;49.696;10.808;2023-06-22T10:56:18;98272.69;;;36.92;29.33
64078;BME280;51039;49.696;10.808;2023-06-22T10:58:44;98272.69;;;36.17;31.03
64078;BME280;51039;49.696;10.808;2023-06-22T11:01:10;98264.97;;;36.67;30.14
64078;BME280;51039;49.696;10.808;2023-06-22T11:03:35;98255.25;;;37.29;29.80
64078;BME280;51039;49.696;10.808;2023-06-22T11:06:00;98256.59;;;36.23;31.57
64078;BME280;51039;49.696;10.808;2023-06-22T11:08:26;98256.28;;;36.31;31.40
64078;BME280;51039;49.696;10.808;2023-06-22T11:10:51;98245.66;;;35.69;32.56
64078;BME280;51039;49.696;10.808;2023-06-22T11:13:17;98238.94;;;35.67;32.82
64078;BME280;51039;49.696;10.808;2023-06-22T11:15:42;98249.44;;;36.18;31.46
64078;BME280;51039;49.696;10.808;2023-06-22T11:18:07;98252.38;;;36.02;32.02
64078;BME280;51039;49.696;10.808;2023-06-22T11:20:33;98240.09;;;36.26;31.26
64078;BME280;51039;49.696;10.808;2023-06-22T11:23:03;98226.81;;;36.39;31.14
64078;BME280;51039;49.696;10.808;2023-06-22T11:25:28;98226.59;;;35.57;33.21
64078;BME280;51039;49.696;10.808;2023-06-22T11:27:54;98229.06;;;35.39;33.60
64078;BME280;51039;49.696;10.808;2023-06-22T11:30:19;98222.75;;;35.12;33.41
64078;BME280;51039;49.696;10.808;2023-06-22T11:32:44;98223.09;;;35.90;33.36
64078;BME280;51039;49.696;10.808;2023-06-22T11:35:10;98211.91;;;36.85;31.26
64078;BME280;51039;49.696;10.808;2023-06-22T11:37:35;98211.22;;;35.56;33.19
64078;BME280;51039;49.696;10.808;2023-06-22T11:40:00;98219.22;;;35.65;33.44
64078;BME280;51039;49.696;10.808;2023-06-22T11:42:27;98203.81;;;35.33;34.12
64078;BME280;51039;49.696;10.808;2023-06-22T11:44:53;98211.28;;;35.59;33.82
64078;BME280;51039;49.696;10.808;2023-06-22T11:47:18;98203.56;;;35.69;33.35
64078;BME280;51039;49.696;10.808;2023-06-22T11:49:44;98205.63;;;35.79;33.81
64078;BME280;51039;49.696;10.808;2023-06-22T11:52:09;98205.97;;;36.42;32.75
64078;BME280;51039;49.696;10.808;2023-06-22T11:54:34;98198.34;;;36.65;32.24
64078;BME280;51039;49.696;10.808;2023-06-22T11:57:00;98184.88;;;35.89;33.26
64078;BME280;51039;49.696;10.808;2023-06-22T11:59:25;98184.00;;;35.81;32.62
64078;BME280;51039;49.696;10.808;2023-06-22T12:01:50;98186.91;;;35.08;34.22
64078;BME280;51039;49.696;10.808;2023-06-22T12:04:16;98184.03;;;35.24;33.89
64078;BME280;51039;49.696;10.808;2023-06-22T12:06:42;98174.97;;;34.74;34.41
64078;BME280;51039;49.696;10.808;2023-06-22T12:09:08;98168.41;;;35.32;33.74
64078;BME280;51039;49.696;10.808;2023-06-22T12:11:34;98167.56;;;35.88;33.71
64078;BME280;51039;49.696;10.808;2023-06-22T12:13:59;98174.72;;;34.83;34.69
64078;BME280;51039;49.696;10.808;2023-06-22T12:16:27;98165.34;;;34.87;34.26
64078;BME280;51039;49.696;10.808;2023-06-22T12:18:55;98160.31;;;34.93;34.09
64078;BME280;51039;49.696;10.808;2023-06-22T12:21:20;98144.31;;;34.52;34.69
64078;BME280;51039;49.696;10.808;2023-06-22T12:23:45;98121.66;;;34.82;34.57
64078;BME280;51039;49.696;10.808;2023-06-22T12:26:11;98117.69;;;35.67;33.88
64078;BME280;51039;49.696;10.808;2023-06-22T12:28:36;98123.72;;;35.76;33.05
64078;BME280;51039;49.696;10.808;2023-06-22T12:31:01;98118.09;;;35.35;33.28
64078;BME280;51039;49.696;10.808;2023-06-22T12:33:27;98121.59;;;35.05;34.17
64078;BME280;51039;49.696;10.808;2023-06-22T12:35:52;98127.34;;;34.70;34.64
64078;BME280;51039;49.696;10.808;2023-06-22T12:38:17;98114.41;;;34.47;34.86
64078;BME280;51039;49.696;10.808;2023-06-22T12:40:42;98110.00;;;35.19;34.22
64078;BME280;51039;49.696;10.808;2023-06-22T12:43:08;98107.41;;;35.64;33.93
64078;BME280;51039;49.696;10.808;2023-06-22T12:45:33;98115.84;;;35.44;33.55
64078;BME280;51039;49.696;10.808;2023-06-22T12:47:59;98110.59;;;35.32;33.83